Sarajevo, Bosnia and Herzegovina
Current Conditions -  °F | °C
As of 10:00 PM on Wednesday 28 Jan 2015 (Local Time) from LQSA Reporting Station
Broken Clouds Broken Clouds  
Wind Chill: 30°   Ceiling: 2000
Heat Index: 30°   Visibility: 4mi
Dew Point: 28°   Wind: 1mph
Humidity: 93%   Direction: NA
Pressure: 29.91"   Gusts: NA
Location:  43.85°N, 18.38°E
Report Text: LQSA 282000Z VRB01KT 7000 BKN020 M01/M02 Q1013 NOSIG
Loading
Personal Weather Stations






























Interactive Weather Map New forecast layout! Learn more

10-Day Weather Forecast

Advertisements
Track Severe Weather on mobile